Luebbering, Missouri
Current Conditions -  °F | °C
As of 4:35 PM on Sunday 23 Nov 2014 (Local Time) from KFYG Reporting Station
Haze Haze  
Wind Chill: 54°   Ceiling: 600
Heat Index: 54°   Visibility: 2.5mi
Dew Point: 54°   Wind: 0mph
Humidity: 100%   Direction: NA
Pressure: 29.3"   Gusts: NA
Location:  38.27°N, 90.82°W
Report Text: KFYG 232235Z AUTO 00000KT 2 1/2SM BR OVC006 12/12 A2930 RMK AO2
Loading
Personal Weather Stations






























Interactive Weather Map New forecast layout! Learn more

10-Day Weather Forecast

Advertisements
Track Severe Weather on mobile